createdAt,value
2017-05-21T00:00:56.383Z,0
2017-05-21T00:01:58.229Z,0
2017-05-21T00:03:00.065Z,0
2017-05-21T00:04:01.880Z,0
2017-05-21T00:05:03.968Z,0
2017-05-21T00:06:05.789Z,0
2017-05-21T00:07:07.626Z,0
2017-05-21T00:08:09.473Z,0
2017-05-21T00:09:23.570Z,0
2017-05-21T00:10:25.422Z,0
2017-05-21T00:11:27.269Z,0
2017-05-21T00:12:29.108Z,0
2017-05-21T00:13:30.923Z,0
2017-05-21T00:14:32.736Z,0
2017-05-21T00:15:34.597Z,0
2017-05-21T00:16:36.421Z,0
2017-05-21T00:17:38.257Z,0
2017-05-21T00:18:52.413Z,0
2017-05-21T00:19:54.250Z,0
2017-05-21T00:20:56.392Z,0
2017-05-21T00:21:58.212Z,0
2017-05-21T00:23:00.048Z,0
2017-05-21T00:24:01.871Z,0
2017-05-21T00:25:03.703Z,0
2017-05-21T00:26:05.570Z,0
2017-05-21T00:27:07.409Z,0
2017-05-21T00:28:21.512Z,0
2017-05-21T00:29:23.349Z,0
2017-05-21T00:30:25.191Z,0
2017-05-21T00:31:27.034Z,0
2017-05-21T00:32:28.873Z,0
2017-05-21T00:33:30.717Z,0
2017-05-21T00:34:32.556Z,0
2017-05-21T00:35:34.398Z,0
2017-05-21T00:36:36.440Z,0
2017-05-21T00:37:50.563Z,0
2017-05-21T00:38:52.408Z,0
2017-05-21T00:39:54.248Z,0
2017-05-21T00:40:56.093Z,0
2017-05-21T00:41:58.026Z,0
2017-05-21T00:42:59.846Z,0
2017-05-21T00:44:01.684Z,0
2017-05-21T00:45:03.503Z,0
2017-05-21T00:46:05.343Z,0
2017-05-21T00:47:19.493Z,0
2017-05-21T00:48:21.329Z,0
2017-05-21T00:49:23.172Z,0
2017-05-21T00:50:25.016Z,0
2017-05-21T00:51:26.852Z,0
2017-05-21T00:52:28.945Z,0
2017-05-21T00:53:30.781Z,0
2017-05-21T00:54:32.603Z,0
2017-05-21T00:55:34.444Z,0
2017-05-21T00:56:48.617Z,0
2017-05-21T00:57:50.452Z,0
2017-05-21T00:58:52.275Z,0
2017-05-21T00:59:54.112Z,0
2017-05-21T01:00:55.954Z,0
2017-05-21T01:01:57.785Z,0
2017-05-21T01:02:59.907Z,0
2017-05-21T01:04:01.745Z,0
2017-05-21T01:05:03.563Z,0
2017-05-21T01:06:17.737Z,0
2017-05-21T01:07:19.573Z,0
2017-05-21T01:08:21.491Z,0
2017-05-21T01:09:23.304Z,0
2017-05-21T01:10:25.124Z,0
2017-05-21T01:11:26.966Z,0
2017-05-21T01:12:28.803Z,0
2017-05-21T01:13:30.874Z,0
2017-05-21T01:14:32.716Z,0
2017-05-21T01:15:46.886Z,0
2017-05-21T01:16:48.727Z,0
2017-05-21T01:17:50.575Z,0
2017-05-21T01:18:52.715Z,0
2017-05-21T01:19:54.560Z,0
2017-05-21T01:20:56.396Z,0
2017-05-21T01:21:58.239Z,0
2017-05-21T01:23:00.074Z,0
2017-05-21T01:24:01.940Z,0
2017-05-21T01:25:16.086Z,0
2017-05-21T01:26:17.921Z,0
2017-05-21T01:27:19.780Z,0
2017-05-21T01:28:21.624Z,0
2017-05-21T01:29:23.565Z,0
2017-05-21T01:30:25.406Z,0
2017-05-21T01:31:27.247Z,0
2017-05-21T01:32:29.093Z,0
2017-05-21T01:33:30.909Z,0
2017-05-21T01:34:45.081Z,0
2017-05-21T01:35:46.922Z,0
2017-05-21T01:36:48.766Z,0
2017-05-21T01:37:50.602Z,0
2017-05-21T01:38:52.449Z,0
2017-05-21T01:39:54.315Z,0
2017-05-21T01:40:56.151Z,0
2017-05-21T01:41:57.966Z,0
2017-05-21T01:42:59.778Z,0
2017-05-21T01:44:13.927Z,0
2017-05-21T01:45:15.742Z,0
2017-05-21T01:46:17.552Z,0
2017-05-21T01:47:19.373Z,0
2017-05-21T01:48:21.210Z,0
2017-05-21T01:49:23.051Z,0
2017-05-21T01:50:24.968Z,0
2017-05-21T01:51:26.814Z,0
2017-05-21T01:52:28.653Z,0
2017-05-21T01:53:42.822Z,0
2017-05-21T01:54:44.640Z,0
2017-05-21T01:55:46.492Z,0
2017-05-21T01:56:48.322Z,0
2017-05-21T01:57:50.160Z,0
2017-05-21T01:58:51.999Z,0
2017-05-21T01:59:53.842Z,0
2017-05-21T02:00:55.685Z,0
2017-05-21T02:01:57.528Z,0
2017-05-21T02:03:11.699Z,0
2017-05-21T02:04:13.538Z,0
2017-05-21T02:05:15.354Z,0
2017-05-21T02:06:17.197Z,0
2017-05-21T02:07:19.012Z,0
2017-05-21T02:08:20.853Z,0
2017-05-21T02:09:22.689Z,0
2017-05-21T02:10:24.528Z,0
2017-05-21T02:11:26.721Z,0
2017-05-21T02:12:40.843Z,0
2017-05-21T02:13:42.659Z,0
2017-05-21T02:14:44.500Z,0
2017-05-21T02:15:46.340Z,0
2017-05-21T02:16:48.206Z,0
2017-05-21T02:17:50.045Z,0
2017-05-21T02:18:51.885Z,0
2017-05-21T02:19:53.730Z,0
2017-05-21T02:20:55.615Z,4
2017-05-21T02:22:09.944Z,4
2017-05-21T02:23:11.790Z,4
2017-05-21T02:24:13.626Z,0
2017-05-21T02:25:15.443Z,4
2017-05-21T02:26:17.256Z,4
2017-05-21T02:27:19.124Z,4
2017-05-21T02:28:20.969Z,4
2017-05-21T02:29:22.780Z,4
2017-05-21T02:30:24.617Z,8
2017-05-21T02:31:38.867Z,8
2017-05-21T02:32:40.712Z,8
2017-05-21T02:33:42.547Z,12
2017-05-21T02:34:44.391Z,12
2017-05-21T02:35:46.208Z,12
2017-05-21T02:36:48.053Z,16
2017-05-21T02:37:49.895Z,20
2017-05-21T02:38:51.739Z,20
2017-05-21T02:39:53.575Z,20
2017-05-21T02:41:07.725Z,28
2017-05-21T02:42:09.567Z,32
2017-05-21T02:43:11.415Z,32
2017-05-21T02:44:13.252Z,40
2017-05-21T02:45:15.074Z,44
2017-05-21T02:46:16.912Z,48
2017-05-21T02:47:18.731Z,56
2017-05-21T02:48:20.569Z,64
2017-05-21T02:49:22.408Z,72
2017-05-21T02:50:36.528Z,80
2017-05-21T02:51:38.350Z,88
2017-05-21T02:52:40.188Z,100
2017-05-21T02:53:42.309Z,112
2017-05-21T02:54:44.123Z,120
2017-05-21T02:55:45.941Z,132
2017-05-21T02:56:47.780Z,144
2017-05-21T02:57:49.595Z,156
2017-05-21T02:58:51.415Z,176
2017-05-21T03:00:05.539Z,192
2017-05-21T03:01:07.386Z,208
2017-05-21T03:02:09.235Z,224
2017-05-21T03:03:11.076Z,240
2017-05-21T03:04:13.324Z,260
2017-05-21T03:05:15.164Z,280
2017-05-21T03:06:17.003Z,296
2017-05-21T03:07:18.839Z,316
2017-05-21T03:08:20.661Z,336
2017-05-21T03:09:34.833Z,364
2017-05-21T03:10:36.651Z,384
2017-05-21T03:11:38.467Z,412
2017-05-21T03:12:40.313Z,436
2017-05-21T03:13:42.168Z,464
2017-05-21T03:14:44.092Z,492
2017-05-21T03:15:45.909Z,528
2017-05-21T03:16:47.751Z,560
2017-05-21T03:17:49.568Z,596
2017-05-21T03:19:03.738Z,632
2017-05-21T03:20:05.557Z,660
2017-05-21T03:21:07.378Z,688
2017-05-21T03:22:09.220Z,712
2017-05-21T03:23:11.066Z,740
2017-05-21T03:24:12.904Z,772
2017-05-21T03:25:15.051Z,804
2017-05-21T03:26:16.865Z,836
2017-05-21T03:27:18.714Z,872
2017-05-21T03:28:32.809Z,920
2017-05-21T03:29:34.627Z,956
2017-05-21T03:30:36.474Z,1000
2017-05-21T03:31:38.320Z,1048
2017-05-21T03:32:40.164Z,1096
2017-05-21T03:33:41.987Z,1140
2017-05-21T03:34:43.827Z,1188
2017-05-21T03:35:46.074Z,1244
2017-05-21T03:36:47.917Z,1312
2017-05-21T03:38:02.093Z,1420
2017-05-21T03:39:03.939Z,1516
2017-05-21T03:40:05.783Z,1628
2017-05-21T03:41:07.629Z,1732
2017-05-21T03:42:09.469Z,1852
2017-05-21T03:43:11.288Z,1964
2017-05-21T03:44:13.114Z,2072
2017-05-21T03:45:14.955Z,2180
2017-05-21T03:46:17.021Z,2284
2017-05-21T03:47:31.131Z,2436
2017-05-21T03:48:32.972Z,2552
2017-05-21T03:49:34.789Z,2668
2017-05-21T03:50:36.616Z,2768
2017-05-21T03:51:38.464Z,2868
2017-05-21T03:52:40.313Z,2996
2017-05-21T03:53:42.149Z,3160
2017-05-21T03:54:43.971Z,3348
2017-05-21T03:55:45.796Z,3560
2017-05-21T03:57:00.430Z,3824
2017-05-21T03:58:02.254Z,3996
2017-05-21T03:59:04.097Z,4148
2017-05-21T04:00:05.941Z,4300
2017-05-21T04:01:07.763Z,4476
2017-05-21T04:02:09.630Z,4640
2017-05-21T04:03:11.481Z,4772
2017-05-21T04:04:13.319Z,4932
2017-05-21T04:05:15.141Z,5076
2017-05-21T04:06:29.500Z,5304
2017-05-21T04:07:31.347Z,5592
2017-05-21T04:08:33.190Z,6064
2017-05-21T04:09:35.038Z,6452
2017-05-21T04:10:36.887Z,6640
2017-05-21T04:11:38.730Z,6968
2017-05-21T04:12:40.594Z,7348
2017-05-21T04:13:42.425Z,7688
2017-05-21T04:14:44.266Z,7908
2017-05-21T04:15:58.453Z,8268
2017-05-21T04:17:00.271Z,8560
2017-05-21T04:18:02.548Z,9000
2017-05-21T04:19:04.393Z,9492
2017-05-21T04:20:06.219Z,9864
2017-05-21T04:21:08.043Z,10144
2017-05-21T04:22:09.865Z,10372
2017-05-21T04:23:11.722Z,10404
2017-05-21T04:24:13.569Z,10492
2017-05-21T04:25:27.705Z,10984
2017-05-21T04:26:29.552Z,11424
2017-05-21T04:27:31.382Z,11756
2017-05-21T04:28:33.636Z,11744
2017-05-21T04:29:35.458Z,11752
2017-05-21T04:30:37.308Z,11688
2017-05-21T04:31:39.138Z,11692
2017-05-21T04:32:40.996Z,11764
2017-05-21T04:33:42.849Z,11672
2017-05-21T04:34:57.035Z,11544
2017-05-21T04:35:58.882Z,11572
2017-05-21T04:37:00.738Z,11756
2017-05-21T04:38:02.564Z,12204
2017-05-21T04:39:04.817Z,12420
2017-05-21T04:40:06.671Z,12128
2017-05-21T04:41:08.533Z,11900
2017-05-21T04:42:10.379Z,11860
2017-05-21T04:43:12.203Z,12020
2017-05-21T04:44:26.415Z,12472
2017-05-21T04:45:28.271Z,12736
2017-05-21T04:46:30.089Z,12256
2017-05-21T04:47:31.923Z,11968
2017-05-21T04:48:33.773Z,12404
2017-05-21T04:49:35.829Z,12528
2017-05-21T04:50:37.683Z,12688
2017-05-21T04:51:39.542Z,13368
2017-05-21T04:52:41.392Z,14208
2017-05-21T04:53:55.506Z,14592
2017-05-21T04:54:57.353Z,14976
2017-05-21T04:55:59.185Z,15232
2017-05-21T04:57:01.038Z,15648
2017-05-21T04:58:02.869Z,15520
2017-05-21T04:59:04.727Z,15968
2017-05-21T05:00:06.918Z,16832
2017-05-21T05:01:08.750Z,17664
2017-05-21T05:02:10.609Z,17472
2017-05-21T05:03:24.740Z,16864
2017-05-21T05:04:26.574Z,17920
2017-05-21T05:05:28.421Z,18048
2017-05-21T05:06:30.273Z,18624
2017-05-21T05:07:32.100Z,19072
2017-05-21T05:08:33.954Z,18432
2017-05-21T05:09:35.802Z,18784
2017-05-21T05:10:37.679Z,20128
2017-05-21T05:11:39.538Z,19456
2017-05-21T05:12:53.675Z,19392
2017-05-21T05:13:55.500Z,20576
2017-05-21T05:14:57.334Z,21088
2017-05-21T05:15:59.483Z,20640
2017-05-21T05:17:01.338Z,20288
2017-05-21T05:18:03.190Z,19296
2017-05-21T05:19:05.015Z,18688
2017-05-21T05:20:06.869Z,18976
2017-05-21T05:21:08.817Z,18656
2017-05-21T05:22:22.928Z,18144
2017-05-21T05:23:24.780Z,18624
2017-05-21T05:24:26.631Z,17664
2017-05-21T05:25:28.482Z,15388
2017-05-21T05:26:30.336Z,12812
2017-05-21T05:27:32.189Z,12344
2017-05-21T05:28:34.014Z,12208
2017-05-21T05:29:35.866Z,12244
2017-05-21T05:30:37.699Z,12096
2017-05-21T05:31:51.877Z,12024
2017-05-21T05:32:53.732Z,12068
2017-05-21T05:33:55.616Z,11764
2017-05-21T05:34:57.419Z,11624
2017-05-21T05:35:59.280Z,11576
2017-05-21T05:37:01.332Z,11648
2017-05-21T05:38:03.151Z,11820
2017-05-21T05:39:05.006Z,11860
2017-05-21T05:40:06.860Z,11716
2017-05-21T05:41:21.388Z,11428
2017-05-21T05:42:23.220Z,11400
2017-05-21T05:43:25.045Z,11504
2017-05-21T05:44:26.881Z,11616
2017-05-21T05:45:28.722Z,11700
2017-05-21T05:46:30.577Z,11712
2017-05-21T05:47:32.447Z,11764
2017-05-21T05:48:34.276Z,11852
2017-05-21T05:49:36.098Z,12024
2017-05-21T05:50:50.259Z,12028
2017-05-21T05:51:52.108Z,11968
2017-05-21T05:52:54.137Z,11888
2017-05-21T05:53:56.017Z,11912
2017-05-21T05:54:57.929Z,12052
2017-05-21T05:55:59.773Z,12272
2017-05-21T05:57:01.628Z,12260
2017-05-21T05:58:03.676Z,12248
2017-05-21T05:59:05.502Z,12268
2017-05-21T06:00:19.664Z,12164
2017-05-21T06:01:21.491Z,12112
2017-05-21T06:02:23.339Z,12152
2017-05-21T06:03:25.290Z,12356
2017-05-21T06:04:27.122Z,12708
2017-05-21T06:05:28.946Z,12680
2017-05-21T06:06:30.795Z,12344
2017-05-21T06:07:32.624Z,12260
2017-05-21T06:08:34.469Z,12392
2017-05-21T06:09:48.608Z,12608
2017-05-21T06:10:50.464Z,12628
2017-05-21T06:11:52.310Z,12848
2017-05-21T06:12:54.137Z,13092
2017-05-21T06:13:56.094Z,12856
2017-05-21T06:14:57.949Z,12800
2017-05-21T06:15:59.767Z,12916
2017-05-21T06:17:01.625Z,13068
2017-05-21T06:18:03.464Z,13116
2017-05-21T06:19:17.607Z,13188
2017-05-21T06:20:19.432Z,13296
2017-05-21T06:21:21.285Z,13416
2017-05-21T06:22:23.141Z,13420
2017-05-21T06:23:24.965Z,13540
2017-05-21T06:24:26.839Z,13700
2017-05-21T06:25:28.694Z,13748
2017-05-21T06:26:30.547Z,13748
2017-05-21T06:27:32.394Z,13944
2017-05-21T06:28:46.579Z,14068
2017-05-21T06:29:48.429Z,13904
2017-05-21T06:30:50.254Z,13492
2017-05-21T06:31:52.081Z,13172
2017-05-21T06:32:53.936Z,12972
2017-05-21T06:33:55.782Z,12876
2017-05-21T06:34:57.661Z,12884
2017-05-21T06:35:59.484Z,12964
2017-05-21T06:37:01.345Z,13228
2017-05-21T06:38:15.443Z,13756
2017-05-21T06:39:17.292Z,14244
2017-05-21T06:40:19.175Z,14428
2017-05-21T06:41:21.021Z,14264
2017-05-21T06:42:22.855Z,13700
2017-05-21T06:43:24.687Z,13004
2017-05-21T06:44:26.508Z,12572
2017-05-21T06:45:28.504Z,12384
2017-05-21T06:46:30.361Z,12436
2017-05-21T06:47:44.488Z,12756
2017-05-21T06:48:46.310Z,12908
2017-05-21T06:49:48.138Z,12816
2017-05-21T06:50:50.164Z,12548
2017-05-21T06:51:51.994Z,12276
2017-05-21T06:52:53.843Z,12160
2017-05-21T06:53:55.667Z,12224
2017-05-21T06:54:57.500Z,12352
2017-05-21T06:55:59.548Z,12428
2017-05-21T06:57:13.683Z,12364
2017-05-21T06:58:15.532Z,12296
2017-05-21T06:59:17.356Z,12336
2017-05-21T07:00:19.188Z,12464
2017-05-21T07:01:21.035Z,12580
2017-05-21T07:02:22.866Z,12668
2017-05-21T07:03:24.717Z,12868
2017-05-21T07:04:26.566Z,13152
2017-05-21T07:05:28.417Z,13272
2017-05-21T07:06:42.872Z,12996
2017-05-21T07:07:44.701Z,12784
2017-05-21T07:08:46.524Z,12740
2017-05-21T07:09:48.355Z,12900
2017-05-21T07:10:50.210Z,12968
2017-05-21T07:11:52.382Z,12808
2017-05-21T07:12:54.233Z,12612
2017-05-21T07:13:56.086Z,12500
2017-05-21T07:14:57.939Z,12460
2017-05-21T07:16:12.048Z,12328
2017-05-21T07:17:13.900Z,12236
2017-05-21T07:18:15.757Z,12232
2017-05-21T07:19:17.605Z,12196
2017-05-21T07:20:19.464Z,12068
2017-05-21T07:21:21.283Z,11996
2017-05-21T07:22:23.187Z,12040
2017-05-21T07:23:25.011Z,12216
2017-05-21T07:24:26.862Z,12508
2017-05-21T07:25:41.014Z,12524
2017-05-21T07:26:42.870Z,12500
2017-05-21T07:27:44.727Z,12520
2017-05-21T07:28:46.581Z,12440
2017-05-21T07:29:48.398Z,12304
2017-05-21T07:30:50.228Z,11952
2017-05-21T07:31:52.074Z,11620
2017-05-21T07:32:53.948Z,11484
2017-05-21T07:33:55.773Z,11388
2017-05-21T07:35:09.887Z,11136
2017-05-21T07:36:11.737Z,11076
2017-05-21T07:37:13.591Z,10880
2017-05-21T07:38:15.440Z,10708
2017-05-21T07:39:17.362Z,10564
2017-05-21T07:40:19.171Z,10620
2017-05-21T07:41:21.017Z,10664
2017-05-21T07:42:22.846Z,10808
2017-05-21T07:43:24.947Z,10820
2017-05-21T07:44:39.136Z,10740
2017-05-21T07:45:40.991Z,10816
2017-05-21T07:46:42.839Z,10636
2017-05-21T07:47:44.669Z,10400
2017-05-21T07:48:46.517Z,10548
2017-05-21T07:49:48.346Z,10720
2017-05-21T07:50:50.203Z,10632
2017-05-21T07:51:52.051Z,10932
2017-05-21T07:52:53.906Z,12100
2017-05-21T07:54:08.333Z,12372
2017-05-21T07:55:10.180Z,11184
2017-05-21T07:56:12.003Z,11364
2017-05-21T07:57:13.829Z,11608
2017-05-21T07:58:15.749Z,10776
2017-05-21T07:59:17.839Z,10816
2017-05-21T08:00:19.667Z,12248
2017-05-21T08:01:21.515Z,11812
2017-05-21T08:02:23.375Z,11384
2017-05-21T08:03:37.793Z,11964
2017-05-21T08:04:39.651Z,12592
2017-05-21T08:05:41.495Z,11012
2017-05-21T08:06:43.346Z,10332
2017-05-21T08:07:45.202Z,11532
2017-05-21T08:08:47.055Z,12436
2017-05-21T08:09:48.958Z,9948
2017-05-21T08:10:50.805Z,10676
2017-05-21T08:11:52.626Z,10404
2017-05-21T08:13:06.787Z,9624
2017-05-21T08:14:08.608Z,10920
2017-05-21T08:15:10.487Z,10188
2017-05-21T08:16:12.454Z,10840
2017-05-21T08:17:14.379Z,11340
2017-05-21T08:18:16.232Z,11032
2017-05-21T08:19:18.087Z,10992
2017-05-21T08:20:20.035Z,12468
2017-05-21T08:21:21.892Z,12720
2017-05-21T08:22:36.026Z,11884
2017-05-21T08:23:37.875Z,12216
2017-05-21T08:24:39.699Z,12988
2017-05-21T08:25:44.759Z,12924
2017-05-21T08:26:46.614Z,12960
2017-05-21T08:27:48.623Z,12264
2017-05-21T08:28:50.454Z,12348
2017-05-21T08:29:52.307Z,12000
2017-05-21T08:30:54.346Z,11720
2017-05-21T08:32:08.539Z,11956
2017-05-21T08:33:10.362Z,11980
2017-05-21T08:34:12.213Z,12432
2017-05-21T08:35:14.066Z,12568
2017-05-21T08:36:15.923Z,12384
2017-05-21T08:37:17.780Z,12088
2017-05-21T08:38:19.597Z,11772
2017-05-21T08:39:21.451Z,12384
2017-05-21T08:40:23.281Z,12192
2017-05-21T08:41:37.413Z,11520
2017-05-21T08:42:39.268Z,11644
2017-05-21T08:43:41.203Z,12064
2017-05-21T08:44:43.028Z,12192
2017-05-21T08:45:44.855Z,13340
2017-05-21T08:46:46.725Z,13396
2017-05-21T08:47:48.585Z,14200
2017-05-21T08:48:50.438Z,14008
2017-05-21T08:49:52.305Z,13168
2017-05-21T08:51:06.595Z,13720
2017-05-21T08:52:08.487Z,13852
2017-05-21T08:53:10.345Z,14376
2017-05-21T08:54:12.196Z,13452
2017-05-21T08:55:14.055Z,13948
2017-05-21T08:56:15.906Z,14384
2017-05-21T08:57:17.933Z,14300
2017-05-21T08:58:19.763Z,14100
2017-05-21T08:59:21.615Z,14028
2017-05-21T09:00:35.796Z,13820
2017-05-21T09:01:37.652Z,13768
2017-05-21T09:02:40.184Z,13844
2017-05-21T09:03:42.134Z,14552
2017-05-21T09:04:44.025Z,15180
2017-05-21T09:05:45.851Z,15792
2017-05-21T09:06:47.687Z,15952
2017-05-21T09:07:49.536Z,16104
2017-05-21T09:08:51.358Z,16364
2017-05-21T09:10:05.630Z,15712
2017-05-21T09:11:07.470Z,15144
2017-05-21T09:12:09.299Z,14000
2017-05-21T09:13:11.254Z,13568
2017-05-21T09:14:13.108Z,13264
2017-05-21T09:15:14.930Z,12908
2017-05-21T09:16:16.761Z,12048
2017-05-21T09:17:18.622Z,11436
2017-05-21T09:18:20.469Z,11588
2017-05-21T09:19:34.627Z,11428
2017-05-21T09:20:36.454Z,10596
2017-05-21T09:21:38.306Z,10424
2017-05-21T09:22:40.253Z,10348
2017-05-21T09:23:42.191Z,9992
2017-05-21T09:24:44.016Z,9560
2017-05-21T09:25:45.859Z,9388
2017-05-21T09:26:47.712Z,9372
2017-05-21T09:27:49.543Z,9652
2017-05-21T09:29:03.725Z,10732
2017-05-21T09:30:05.571Z,10696
2017-05-21T09:31:07.400Z,10268
2017-05-21T09:32:09.234Z,10652
2017-05-21T09:33:11.083Z,10472
2017-05-21T09:34:13.284Z,11432
2017-05-21T09:35:15.139Z,12952
2017-05-21T09:36:17.045Z,14408
2017-05-21T09:37:18.927Z,12096
2017-05-21T09:38:33.372Z,10820
2017-05-21T09:39:35.220Z,12472
2017-05-21T09:40:37.075Z,13200
2017-05-21T09:41:38.901Z,12556
2017-05-21T09:42:40.765Z,13524
2017-05-21T09:43:42.613Z,14368
2017-05-21T09:44:44.488Z,15400
2017-05-21T09:45:46.334Z,15596
2017-05-21T09:46:48.166Z,15312
2017-05-21T09:48:02.352Z,14368
2017-05-21T09:49:04.206Z,15060
2017-05-21T09:50:06.089Z,13872
2017-05-21T09:51:07.941Z,11560
2017-05-21T09:52:09.769Z,11612
2017-05-21T09:53:11.618Z,12656
2017-05-21T09:54:13.453Z,15576
2017-05-21T09:55:15.503Z,15932
2017-05-21T09:56:17.363Z,17088
2017-05-21T09:57:31.492Z,14304
2017-05-21T09:58:33.326Z,11752
2017-05-21T09:59:35.178Z,12172
2017-05-21T10:00:37.036Z,12848
2017-05-21T10:01:38.887Z,13612
2017-05-21T10:02:40.741Z,13440
2017-05-21T10:03:42.591Z,11796
2017-05-21T10:04:44.424Z,10640
2017-05-21T10:05:46.299Z,10336
2017-05-21T10:07:00.435Z,10296
2017-05-21T10:08:02.370Z,10816
2017-05-21T10:09:04.280Z,11284
2017-05-21T10:10:06.130Z,12484
2017-05-21T10:11:08.108Z,12560
2017-05-21T10:12:09.960Z,11440
2017-05-21T10:13:11.795Z,12184
2017-05-21T10:14:13.644Z,11460
2017-05-21T10:15:15.479Z,12904
2017-05-21T10:16:29.655Z,14776
2017-05-21T10:17:31.513Z,14348
2017-05-21T10:18:33.363Z,12368
2017-05-21T10:19:35.192Z,10772
2017-05-21T10:20:37.052Z,10024
2017-05-21T10:21:39.104Z,10360
2017-05-21T10:22:40.931Z,11884
2017-05-21T10:23:42.758Z,10692
2017-05-21T10:24:44.609Z,10672
2017-05-21T10:25:58.722Z,11528
2017-05-21T10:27:00.547Z,13408
2017-05-21T10:28:02.369Z,13324
2017-05-21T10:29:04.227Z,12544
2017-05-21T10:30:06.086Z,11680
2017-05-21T10:31:07.937Z,11004
2017-05-21T10:32:09.814Z,11648
2017-05-21T10:33:11.643Z,12688
2017-05-21T10:34:13.464Z,13596
2017-05-21T10:35:27.608Z,15916
2017-05-21T10:36:29.436Z,17600
2017-05-21T10:37:31.387Z,17632
2017-05-21T10:38:33.241Z,17824
2017-05-21T10:39:35.087Z,17216
2017-05-21T10:40:36.923Z,17472
2017-05-21T10:41:38.777Z,15264
2017-05-21T10:42:40.799Z,13776
2017-05-21T10:43:42.653Z,12128
2017-05-21T10:44:56.760Z,10876
2017-05-21T10:45:58.591Z,10036
2017-05-21T10:47:00.441Z,9224
2017-05-21T10:48:02.369Z,9556
2017-05-21T10:49:04.195Z,9808
2017-05-21T10:50:06.051Z,9804
2017-05-21T10:51:07.897Z,9688
2017-05-21T10:52:09.725Z,9768
2017-05-21T10:53:11.577Z,10104
2017-05-21T10:54:25.714Z,10592
2017-05-21T10:55:27.568Z,11032
2017-05-21T10:56:29.423Z,11104
2017-05-21T10:57:31.255Z,11556
2017-05-21T10:58:33.138Z,12280
2017-05-21T10:59:34.971Z,13144
2017-05-21T11:00:36.821Z,14256
2017-05-21T11:01:38.653Z,15312
2017-05-21T11:02:40.508Z,16800
2017-05-21T11:03:54.645Z,15344
2017-05-21T11:04:56.504Z,15448
2017-05-21T11:05:58.373Z,15072
2017-05-21T11:07:00.405Z,12884
2017-05-21T11:08:02.277Z,11972
2017-05-21T11:09:04.133Z,11216
2017-05-21T11:10:05.984Z,11060
2017-05-21T11:11:07.834Z,11848
2017-05-21T11:12:09.698Z,13224
2017-05-21T11:13:23.795Z,14144
2017-05-21T11:14:25.626Z,14860
2017-05-21T11:15:27.486Z,15184
2017-05-21T11:16:29.338Z,15172
2017-05-21T11:17:31.168Z,14612
2017-05-21T11:18:33.077Z,13732
2017-05-21T11:19:34.910Z,12688
2017-05-21T11:20:36.773Z,11336
2017-05-21T11:21:38.690Z,10524
2017-05-21T11:22:53.040Z,10876
2017-05-21T11:23:54.916Z,10756
2017-05-21T11:24:56.790Z,10624
2017-05-21T11:25:58.673Z,13000
2017-05-21T11:27:00.537Z,14784
2017-05-21T11:28:02.403Z,15032
2017-05-21T11:29:04.322Z,16224
2017-05-21T11:30:06.310Z,17152
2017-05-21T11:31:08.173Z,16128
2017-05-21T11:32:22.317Z,13572
2017-05-21T11:33:24.196Z,11828
2017-05-21T11:34:26.046Z,12032
2017-05-21T11:35:27.934Z,13776
2017-05-21T11:36:29.804Z,16576
2017-05-21T11:37:31.634Z,17952
2017-05-21T11:38:33.509Z,16928
2017-05-21T11:39:35.322Z,15672
2017-05-21T11:40:37.444Z,15600
2017-05-21T11:41:51.606Z,17280
2017-05-21T11:42:53.458Z,17600
2017-05-21T11:43:55.293Z,17504
2017-05-21T11:44:57.226Z,17536
2017-05-21T11:45:59.167Z,17280
2017-05-21T11:47:01.020Z,16800
2017-05-21T11:48:02.879Z,15896
2017-05-21T11:49:04.767Z,14896
2017-05-21T11:50:06.719Z,13492
2017-05-21T11:51:20.898Z,12504
2017-05-21T11:52:22.814Z,11348
2017-05-21T11:53:24.680Z,10736
2017-05-21T11:54:26.540Z,10984
2017-05-21T11:55:28.396Z,11856
2017-05-21T11:56:30.247Z,12908
2017-05-21T11:57:32.229Z,13936
2017-05-21T11:58:34.092Z,14940
2017-05-21T11:59:35.945Z,15012
2017-05-21T12:00:50.050Z,15912
2017-05-21T12:01:51.904Z,16068
2017-05-21T12:02:53.761Z,15180
2017-05-21T12:03:55.614Z,14800
2017-05-21T12:04:57.479Z,14976
2017-05-21T12:05:59.340Z,15940
2017-05-21T12:07:01.193Z,17888
2017-05-21T12:08:03.047Z,18432
2017-05-21T12:09:04.899Z,17760
2017-05-21T12:10:19.033Z,17056
2017-05-21T12:11:20.866Z,15072
2017-05-21T12:12:22.894Z,14468
2017-05-21T12:13:24.809Z,13860
2017-05-21T12:14:26.645Z,13004
2017-05-21T12:15:28.500Z,12160
2017-05-21T12:16:30.360Z,11796
2017-05-21T12:17:32.212Z,11568
2017-05-21T12:18:34.042Z,11396
2017-05-21T12:19:48.176Z,11700
2017-05-21T12:20:50.008Z,11916
2017-05-21T12:21:51.860Z,12564
2017-05-21T12:22:53.720Z,12892
2017-05-21T12:23:55.570Z,15080
2017-05-21T12:24:57.396Z,16928
2017-05-21T12:25:59.225Z,16992
2017-05-21T12:27:01.081Z,17728
2017-05-21T12:28:03.185Z,16832
2017-05-21T12:29:17.345Z,16576
2017-05-21T12:30:19.171Z,16960
2017-05-21T12:31:21.034Z,17248
2017-05-21T12:32:22.891Z,17856
2017-05-21T12:33:24.738Z,17952
2017-05-21T12:34:26.568Z,17920
2017-05-21T12:35:28.420Z,17664
2017-05-21T12:36:30.277Z,16704
2017-05-21T12:37:32.133Z,15556
2017-05-21T12:38:46.477Z,14496
2017-05-21T12:39:48.329Z,14476
2017-05-21T12:40:50.179Z,14400
2017-05-21T12:41:52.012Z,13316
2017-05-21T12:42:53.855Z,13072
2017-05-21T12:43:55.740Z,14496
2017-05-21T12:44:57.590Z,17504
2017-05-21T12:45:59.442Z,18592
2017-05-21T12:47:01.278Z,17504
2017-05-21T12:48:15.442Z,17024
2017-05-21T12:49:17.294Z,16448
2017-05-21T12:50:19.125Z,15036
2017-05-21T12:51:20.950Z,13972
2017-05-21T12:52:22.779Z,12596
2017-05-21T12:53:24.637Z,10680
2017-05-21T12:54:26.592Z,10024
2017-05-21T12:55:28.420Z,10604
2017-05-21T12:56:30.250Z,12424
2017-05-21T12:57:44.441Z,14596
2017-05-21T12:58:46.290Z,15124
2017-05-21T12:59:48.199Z,15468
2017-05-21T13:00:50.052Z,14552
2017-05-21T13:01:51.904Z,14624
2017-05-21T13:02:53.739Z,15196
2017-05-21T13:03:55.593Z,16224
2017-05-21T13:04:57.449Z,16480
2017-05-21T13:05:59.277Z,15772
2017-05-21T13:07:13.417Z,15056
2017-05-21T13:08:15.266Z,14796
2017-05-21T13:09:17.101Z,15180
2017-05-21T13:10:18.962Z,14212
2017-05-21T13:11:20.811Z,13288
2017-05-21T13:12:22.667Z,12200
2017-05-21T13:13:24.487Z,10352
2017-05-21T13:14:26.319Z,9004
2017-05-21T13:15:28.422Z,8856
2017-05-21T13:16:42.558Z,9320
2017-05-21T13:17:44.411Z,9752
2017-05-21T13:18:46.236Z,9668
2017-05-21T13:19:48.070Z,10252
2017-05-21T13:20:49.942Z,10492
2017-05-21T13:21:51.772Z,10816
2017-05-21T13:22:53.630Z,11564
2017-05-21T13:23:55.477Z,12596
2017-05-21T13:24:57.309Z,13620
2017-05-21T13:26:11.466Z,13468
2017-05-21T13:27:13.296Z,13068
2017-05-21T13:28:15.151Z,14212
2017-05-21T13:29:17.014Z,15596
2017-05-21T13:30:18.844Z,15168
2017-05-21T13:31:20.893Z,14648
2017-05-21T13:32:22.745Z,13756
2017-05-21T13:33:24.605Z,13072
2017-05-21T13:34:26.463Z,12420
2017-05-21T13:35:40.703Z,12128
2017-05-21T13:36:42.533Z,12188
2017-05-21T13:37:44.380Z,12008
2017-05-21T13:38:46.233Z,12340
2017-05-21T13:39:48.095Z,12632
2017-05-21T13:40:49.944Z,12136
2017-05-21T13:41:51.819Z,11892
2017-05-21T13:42:53.657Z,11280
2017-05-21T13:43:55.482Z,10512
2017-05-21T13:45:09.597Z,9216
2017-05-21T13:46:11.424Z,8004
2017-05-21T13:47:13.267Z,7564
2017-05-21T13:48:15.126Z,7616
2017-05-21T13:49:16.974Z,8032
2017-05-21T13:50:18.795Z,8196
2017-05-21T13:51:20.624Z,8332
2017-05-21T13:52:22.504Z,8516
2017-05-21T13:53:24.329Z,8596
2017-05-21T13:54:38.459Z,8688
2017-05-21T13:55:40.287Z,8812
2017-05-21T13:56:42.119Z,8996
2017-05-21T13:57:44.067Z,9420
2017-05-21T13:58:45.922Z,9940
2017-05-21T13:59:47.748Z,10232
2017-05-21T14:00:49.601Z,10996
2017-05-21T14:01:51.431Z,11440